Time;durP1;ratioP1;P1;durP2;ratioP2;P2;SDS_P1;SDS_P2;PMS_P1;PMS_P2;Temp;Humidity;BMP_temperature;BMP_pressure;BME280_temperature;BME280_humidity;BME280_pressure;Samples;Min_cycle;Max_cycle;Signal;HPM_P1;HPM_P2
2023/04/22 04:01:44;;;;;;;86.85;11.77;;;7.30;99.90;;;;;;5429418;23;20050;-80
2023/04/22 04:11:40;;;;;;;36.53;17.92;;;7.20;99.90;;;;;;4996810;28;20042;-80
2023/04/22 04:14:49;;;;;;;;;;;;;;;;;;;;;
2023/04/22 04:21:46;;;;;;;42.90;22.17;;;7.30;99.90;;;;;;4935203;28;20053;-80
2023/04/22 04:24:12;;;;;;;;;;;7.50;99.90;;;;;;4979536;28;20406;-79
2023/04/22 04:26:37;;;;;;;;;;;7.50;99.90;;;;;;4963299;28;19922;-79
2023/04/22 04:29:04;;;;;;;49.47;23.60;;;7.50;99.90;;;;;;4979135;28;20084;-80
2023/04/22 04:31:40;;;;;;;50.58;22.88;;;7.50;99.90;;;;;;4962646;28;20047;-79
2023/04/22 04:34:06;;;;;;;47.78;23.95;;;7.50;99.90;;;;;;4962116;28;20054;-78
2023/04/22 04:36:32;;;;;;;54.00;24.10;;;7.60;99.90;;;;;;4978927;28;20050;-80
2023/04/22 04:38:58;;;;;;;43.75;22.67;;;7.60;99.90;;;;;;4963740;28;20074;-80
2023/04/22 04:41:27;;;;;;;47.20;24.10;;;7.60;99.90;;;;;;4962841;28;20089;-80
2023/04/22 04:43:55;;;;;;;47.55;23.15;;;7.60;99.90;;;;;;4979759;28;20046;-80
2023/04/22 04:46:21;;;;;;;43.15;23.08;;;7.60;99.90;;;;;;4962771;28;20045;-79
2023/04/22 04:48:50;;;;;;;53.53;25.20;;;7.60;99.90;;;;;;4979231;28;20060;-80
2023/04/22 04:51:16;;;;;;;58.63;25.88;;;7.60;99.90;;;;;;4962461;28;20050;-80
2023/04/22 04:53:42;;;;;;;51.42;25.20;;;7.60;99.90;;;;;;4962507;28;20057;-80
2023/04/22 04:56:08;;;;;;;55.03;25.75;;;7.70;99.90;;;;;;4963732;28;20042;-81
2023/04/22 04:58:34;;;;;;;48.90;24.35;;;7.70;99.90;;;;;;4963078;28;20050;-79
2023/04/22 05:00:59;;;;;;;49.72;25.98;;;7.70;99.90;;;;;;4961950;28;20042;-80
2023/04/22 05:03:25;;;;;;;56.55;25.63;;;7.70;99.90;;;;;;4961291;28;20042;-80
2023/04/22 05:05:51;;;;;;;51.28;25.65;;;7.70;99.90;;;;;;4962434;28;20061;-80
2023/04/22 05:08:17;;;;;;;52.70;25.95;;;7.80;99.90;;;;;;4962661;28;20116;-80
2023/04/22 05:10:43;;;;;;;50.75;24.17;;;7.80;99.90;;;;;;4963075;28;20045;-80
2023/04/22 05:13:10;;;;;;;53.70;25.65;;;7.80;99.90;;;;;;4946811;28;20057;-81
2023/04/22 05:19:01;;;;;;;;;;;;;;;;;;;;;
2023/04/22 05:22:04;;;;;;;58.80;24.38;;;7.80;99.90;;;;;;4995428;28;20447;-81
2023/04/22 05:25:13;;;;;;;;;;;;;;;;;;;;;
2023/04/22 05:32:03;;;;;;;48.42;21.45;;;7.70;99.90;;;;;;4878754;29;20063;-81
2023/04/22 05:34:55;;;;;;;51.33;23.83;;;7.70;99.90;;;;;;4846633;29;20053;-81
2023/04/22 05:37:37;;;;;;;;;;;;;;;;;;;;;
2023/04/22 05:40:25;;;;;;;59.70;27.40;;;7.80;99.90;;;;;;4878357;29;20060;-80
2023/04/22 05:42:56;;;;;;;57.10;26.75;;;7.80;99.90;;;;;;4884337;29;20495;-81
2023/04/22 05:45:50;;;;;;;;;;;;;;;;;;;;;
2023/04/22 05:56:43;;;;;;;59.15;28.67;;;8.00;99.90;;;;;;4878266;29;20522;-81
2023/04/22 06:00:17;;;;;;;52.88;27.15;;;8.10;99.90;;;;;;4855390;29;20052;-81
2023/04/22 06:02:58;;;;;;;52.25;28.42;;;8.20;99.90;;;;;;4805117;29;20066;-80
2023/04/22 06:05:30;;;;;;;50.08;27.73;;;8.30;99.90;;;;;;4865022;29;20543;-81
2023/04/22 06:07:58;;;;;;;53.40;27.98;;;8.40;99.90;;;;;;4923462;29;20042;-80
2023/04/22 06:10:24;;;;;;;55.03;28.95;;;8.40;99.90;;;;;;4954899;28;20050;-79
2023/04/22 06:12:53;;;;;;;61.10;30.45;;;8.50;99.90;;;;;;4961130;28;20042;-80
2023/04/22 06:25:15;;;;;;;47.20;26.73;;;9.00;99.90;;;;;;5153329;23;20062;-81
2023/04/22 06:27:53;;;;;;;;;;;;;;;;;;;;;
2023/04/22 06:30:21;;;;;;;43.30;25.25;;;9.10;99.90;;;;;;4976544;28;20042;-79
2023/04/22 06:32:54;;;;;;;45.08;26.42;;;9.20;99.90;;;;;;4994680;28;20059;-80
2023/04/22 06:35:20;;;;;;;46.35;26.27;;;9.30;99.90;;;;;;4976971;28;20050;-80
2023/04/22 06:37:47;;;;;;;45.03;25.38;;;9.40;99.90;;;;;;4962020;28;20042;-78
2023/04/22 06:40:46;;;;;;;;;;;;;;;;;;;;;
2023/04/22 06:43:38;;;;;;;44.20;25.33;;;9.50;99.90;;;;;;4978548;28;20398;-80
2023/04/22 06:46:45;;;;;;;44.17;25.30;;;9.60;99.90;;;;;;4977397;28;20046;-84
2023/04/22 06:49:14;;;;;;;41.03;24.58;;;9.70;99.90;;;;;;4974466;28;20050;-77
2023/04/22 06:51:42;;;;;;;46.85;25.40;;;9.80;99.90;;;;;;4960979;28;20045;-77
2023/04/22 06:54:08;;;;;;;37.88;24.85;;;9.90;99.90;;;;;;4994485;28;20122;-79
2023/04/22 06:56:34;;;;;;;39.72;24.77;;;10.00;99.90;;;;;;4976571;28;20050;-78
2023/04/22 06:59:00;;;;;;;36.80;23.27;;;10.10;99.90;;;;;;4976692;28;20094;-78
2023/04/22 07:01:26;;;;;;;34.25;23.02;;;10.10;99.90;;;;;;4976355;28;20074;-78
2023/04/22 07:03:51;;;;;;;33.28;22.20;;;10.20;99.90;;;;;;4976255;28;20049;-79
2023/04/22 07:06:17;;;;;;;35.72;22.67;;;10.30;99.90;;;;;;4976673;28;20050;-78
2023/04/22 07:08:43;;;;;;;37.40;22.70;;;10.40;99.90;;;;;;4976777;28;20042;-80
2023/04/22 07:11:09;;;;;;;38.50;22.73;;;10.50;99.90;;;;;;4960992;28;20077;-77
2023/04/22 07:13:36;;;;;;;35.08;23.15;;;10.50;99.90;;;;;;4976893;28;20042;-82
2023/04/22 07:16:01;;;;;;;33.47;22.20;;;10.60;99.90;;;;;;4977130;28;20061;-79
2023/04/22 07:18:28;;;;;;;34.83;22.58;;;10.60;99.90;;;;;;4994348;28;20042;-79
2023/04/22 07:20:54;;;;;;;32.08;21.10;;;10.70;99.90;;;;;;4960742;28;20118;-80
2023/04/22 07:23:20;;;;;;;32.03;21.75;;;10.70;99.90;;;;;;4960340;28;20057;-77
2023/04/22 07:25:46;;;;;;;30.73;21.38;;;10.80;99.90;;;;;;4993300;28;20474;-79
2023/04/22 07:28:11;;;;;;;33.10;21.25;;;10.90;99.90;;;;;;4975411;28;20035;-75
2023/04/22 07:30:37;;;;;;;32.28;20.52;;;10.90;99.90;;;;;;4976339;28;20514;-80
2023/04/22 07:33:02;;;;;;;30.45;21.25;;;11.00;99.90;;;;;;4960260;28;20366;-78
2023/04/22 07:35:31;;;;;;;29.42;21.02;;;11.10;99.90;;;;;;4960530;28;20042;-84
2023/04/22 07:37:57;;;;;;;29.17;20.20;;;11.10;99.90;;;;;;4976325;28;20046;-79
2023/04/22 07:40:22;;;;;;;31.42;20.38;;;11.30;99.90;;;;;;4993692;28;20042;-79
2023/04/22 07:43:01;;;;;;;30.10;20.88;;;11.30;99.90;;;;;;4976331;28;20045;-80
2023/04/22 07:45:30;;;;;;;28.85;20.08;;;11.40;99.90;;;;;;4960842;28;20049;-79
2023/04/22 07:47:56;;;;;;;29.88;20.17;;;11.50;99.90;;;;;;4961152;28;20047;-80
2023/04/22 07:55:53;;;;;;;27.17;19.40;;;11.70;99.90;;;;;;4993285;23;19922;-81
2023/04/22 07:58:25;;;;;;;28.30;20.00;;;11.80;99.90;;;;;;4960824;28;20094;-81
2023/04/22 08:01:48;;;;;;;;;;;;;;;;;;;;;
2023/04/22 08:04:42;;;;;;;;;;;;;;;;;;;;;
2023/04/22 08:07:08;;;;;;;28.35;18.85;;;11.90;99.90;;;;;;4976684;28;20042;-81
2023/04/22 08:09:34;;;;;;;29.67;19.58;;;12.00;99.90;;;;;;4960603;28;20049;-82
2023/04/22 08:12:00;;;;;;;22.77;17.65;;;12.10;99.90;;;;;;4960571;28;20153;-81
2023/04/22 08:18:28;;;;;;;;;;;;;;;;;;;;;
2023/04/22 08:21:11;;;;;;;26.45;18.63;;;12.30;99.90;;;;;;4975170;28;20058;-81
2023/04/22 08:23:37;;;;;;;26.98;19.83;;;12.50;99.90;;;;;;4977100;28;20046;-81
2023/04/22 08:26:19;;;;;;;;;;;;;;;;;;;;;
2023/04/22 08:29:13;;;;;;;27.52;19.77;;;12.70;99.90;;;;;;4980776;28;20050;-78
2023/04/22 08:31:45;;;;;;;25.40;18.63;;;12.80;99.90;;;;;;4967269;28;20051;-80
2023/04/22 08:34:24;;;;;;;28.92;18.58;;;13.00;99.90;;;;;;4945271;28;20149;-79
2023/04/22 08:36:50;;;;;;;25.50;17.95;;;13.10;99.90;;;;;;4956614;28;20547;-80
2023/04/22 08:39:17;;;;;;;26.58;17.38;;;13.20;99.90;;;;;;4959571;28;20082;-81
2023/04/22 08:41:46;;;;;;;25.45;17.02;;;13.40;99.90;;;;;;4944402;28;20038;-79
2023/04/22 08:44:13;;;;;;;23.23;16.63;;;13.60;99.90;;;;;;4960218;28;20082;-81
2023/04/22 08:46:40;;;;;;;25.23;16.60;;;13.70;99.90;;;;;;4943992;28;20154;-81
2023/04/22 08:49:06;;;;;;;27.85;16.52;;;13.70;99.90;;;;;;4975465;28;20043;-80
2023/04/22 08:51:35;;;;;;;21.48;15.43;;;13.80;99.90;;;;;;4975568;28;20050;-81
2023/04/22 08:54:00;;;;;;;19.73;14.50;;;14.00;99.90;;;;;;4960081;28;20114;-81
2023/04/22 08:56:28;;;;;;;22.10;13.98;;;14.10;99.90;;;;;;4959936;28;20051;-82
2023/04/22 08:58:54;;;;;;;20.42;14.43;;;14.40;99.90;;;;;;4943555;28;20090;-81
2023/04/22 09:01:21;;;;;;;17.85;13.35;;;14.80;99.90;;;;;;4943432;28;20542;-82
2023/04/22 09:03:48;;;;;;;22.02;13.75;;;15.10;99.90;;;;;;4997085;28;20077;-81
2023/04/22 09:06:17;;;;;;;18.50;14.18;;;15.30;99.90;;;;;;4980077;28;20093;-81
2023/04/22 09:08:42;;;;;;;17.80;12.85;;;15.40;99.90;;;;;;4979092;28;20081;-81
2023/04/22 09:11:09;;;;;;;18.35;13.18;;;15.60;99.90;;;;;;4978745;28;20046;-81
2023/04/22 09:13:35;;;;;;;18.70;14.98;;;15.80;99.90;;;;;;4978910;28;20074;-81
2023/04/22 09:16:00;;;;;;;19.15;13.80;;;16.00;99.90;;;;;;4996331;28;20156;-81
2023/04/22 09:18:26;;;;;;;17.70;14.23;;;16.00;99.90;;;;;;4979757;28;20053;-80
2023/04/22 09:20:55;;;;;;;16.70;12.98;;;16.20;99.90;;;;;;4978675;28;20096;-79
2023/04/22 09:23:21;;;;;;;16.88;13.00;;;16.30;99.90;;;;;;4978956;28;20042;-81
2023/04/22 09:25:46;;;;;;;16.50;12.45;;;16.30;99.90;;;;;;4996174;28;20065;-79
2023/04/22 09:28:17;;;;;;;14.70;11.55;;;16.30;99.90;;;;;;4978469;28;20034;-81
2023/04/22 09:30:44;;;;;;;15.63;11.63;;;16.40;99.90;;;;;;4962522;28;20450;-80
2023/04/22 09:33:12;;;;;;;16.25;13.90;;;16.40;99.90;;;;;;4978879;28;20417;-81
2023/04/22 09:35:42;;;;;;;15.70;11.32;;;16.40;99.90;;;;;;4978694;28;20453;-80
2023/04/22 09:38:09;;;;;;;13.63;11.52;;;16.40;99.90;;;;;;4995758;28;20512;-79
2023/04/22 09:40:40;;;;;;;12.75;10.43;;;16.30;99.90;;;;;;4995514;28;20371;-81
2023/04/22 09:43:07;;;;;;;14.20;11.38;;;16.30;99.90;;;;;;4995849;28;20050;-80
2023/04/22 09:45:38;;;;;;;13.25;10.63;;;16.30;99.90;;;;;;4978540;28;20038;-81
2023/04/22 09:48:10;;;;;;;14.77;11.50;;;16.40;99.90;;;;;;4978168;28;20030;-80
2023/04/22 09:50:37;;;;;;;15.63;11.32;;;16.70;99.90;;;;;;4976883;28;20046;-80
2023/04/22 09:53:09;;;;;;;14.57;11.48;;;17.20;99.90;;;;;;4995443;28;20046;-80
2023/04/22 09:55:39;;;;;;;14.10;11.13;;;17.60;99.90;;;;;;4977799;28;20080;-80
2023/04/22 09:58:12;;;;;;;12.93;10.63;;;17.80;99.90;;;;;;4994925;28;20042;-80
2023/04/22 10:00:44;;;;;;;13.93;10.82;;;17.80;99.90;;;;;;4977474;28;20077;-81
2023/04/22 10:03:10;;;;;;;12.10;9.82;;;17.80;99.90;;;;;;4977683;28;20053;-80
2023/04/22 10:05:36;;;;;;;13.30;10.43;;;17.80;99.90;;;;;;4977693;28;20038;-80
2023/04/22 10:08:06;;;;;;;13.95;11.68;;;18.10;99.90;;;;;;4993959;28;20360;-80
2023/04/22 10:10:32;;;;;;;11.13;9.63;;;18.10;99.90;;;;;;4978161;28;20446;-80
2023/04/22 10:12:59;;;;;;;12.40;10.27;;;18.10;99.90;;;;;;4977838;28;20405;-80
2023/04/22 10:15:25;;;;;;;13.63;9.98;;;18.30;99.90;;;;;;4977933;28;20061;-81
2023/04/22 10:17:53;;;;;;;13.25;10.15;;;18.50;99.90;;;;;;4977401;28;20049;-80
2023/04/22 10:20:20;;;;;;;11.60;9.45;;;18.70;99.90;;;;;;4977297;28;20042;-79
2023/04/22 10:22:46;;;;;;;11.68;9.85;;;18.70;99.90;;;;;;4977483;28;20112;-79
2023/04/22 10:25:20;;;;;;;13.95;9.25;;;18.80;99.90;;;;;;4977193;28;20121;-79
2023/04/22 10:27:53;;;;;;;12.73;9.00;;;18.80;99.90;;;;;;4977280;28;20034;-80
2023/04/22 10:30:35;;;;;;;11.77;9.57;;;18.70;99.90;;;;;;4977112;28;20081;-80
2023/04/22 10:33:20;;;;;;;13.40;9.38;;;18.70;99.90;;;;;;4960951;28;20129;-80
2023/04/22 10:36:06;;;;;;;13.43;9.57;;;18.80;99.90;;;;;;4976975;28;20096;-81
2023/04/22 10:38:41;;;;;;;12.85;9.85;;;18.90;99.90;;;;;;4977176;28;20462;-80
2023/04/22 10:41:14;;;;;;;11.68;9.32;;;19.10;99.90;;;;;;4977642;28;20047;-81
2023/04/22 10:43:44;;;;;;;15.00;9.68;;;19.10;99.90;;;;;;4994915;28;20092;-80
2023/04/22 10:46:35;;;;;;;11.77;9.45;;;19.30;99.90;;;;;;4977099;28;20065;-79
2023/04/22 10:49:19;;;;;;;10.30;9.20;;;19.30;99.90;;;;;;4968891;28;20061;-80
2023/04/22 10:51:48;;;;;;;13.10;9.77;;;19.30;99.90;;;;;;4977337;28;20042;-80
2023/04/22 10:54:30;;;;;;;11.13;9.48;;;19.30;99.90;;;;;;4977109;28;20050;-79
2023/04/22 10:57:10;;;;;;;10.27;8.77;;;19.40;99.90;;;;;;4976657;28;20077;-79
2023/04/22 10:59:48;;;;;;;10.85;9.60;;;19.40;99.90;;;;;;4976668;28;20058;-80
2023/04/22 11:02:15;;;;;;;11.38;8.85;;;19.50;99.90;;;;;;4976645;28;20034;-79
2023/04/22 11:04:41;;;;;;;12.77;11.48;;;19.60;99.90;;;;;;4976537;28;20064;-79
2023/04/22 11:07:21;;;;;;;11.73;8.98;;;19.60;99.90;;;;;;4976430;28;20050;-80
2023/04/22 11:10:20;;;;;;;12.73;10.00;;;19.60;99.90;;;;;;4976550;28;20050;-78
2023/04/22 11:12:48;;;;;;;12.55;9.70;;;19.60;99.90;;;;;;4963806;28;20506;-79
2023/04/22 11:15:18;;;;;;;11.82;8.77;;;19.60;99.90;;;;;;4976379;28;20125;-80
2023/04/22 11:17:50;;;;;;;10.95;7.93;;;19.80;99.90;;;;;;4976870;28;20394;-80
2023/04/22 11:20:16;;;;;;;11.68;8.48;;;20.10;99.90;;;;;;4960529;28;20039;-78
2023/04/22 11:22:43;;;;;;;11.52;9.23;;;20.10;99.90;;;;;;4977152;28;20053;-80
2023/04/22 11:25:09;;;;;;;11.48;10.10;;;20.20;99.90;;;;;;4976194;28;20094;-80
2023/04/22 11:27:36;;;;;;;9.23;6.53;;;20.40;99.90;;;;;;4960409;28;20042;-78
2023/04/22 11:30:06;;;;;;;8.77;6.13;;;20.50;99.90;;;;;;4994434;28;20038;-80
2023/04/22 11:32:32;;;;;;;9.73;7.30;;;20.50;99.90;;;;;;4993773;28;20046;-78
2023/04/22 11:35:05;;;;;;;9.73;7.57;;;20.70;99.90;;;;;;4976454;28;20046;-79
2023/04/22 11:37:46;;;;;;;11.60;7.88;;;20.80;99.90;;;;;;4976187;28;20054;-79
2023/04/22 11:40:36;;;;;;;9.98;8.32;;;20.80;99.90;;;;;;4994068;28;20035;-79
2023/04/22 11:43:04;;;;;;;10.77;8.82;;;20.70;99.90;;;;;;4976488;28;20048;-80
2023/04/22 11:45:31;;;;;;;11.27;8.45;;;20.40;99.90;;;;;;4976077;28;20125;-79
2023/04/22 11:47:57;;;;;;;11.00;9.00;;;20.10;99.90;;;;;;4976013;28;20050;-78
2023/04/22 11:50:28;;;;;;;10.68;8.80;;;19.80;99.90;;;;;;4959657;28;20490;-78
2023/04/22 11:52:56;;;;;;;8.80;6.45;;;19.70;99.90;;;;;;4975738;28;20078;-79
2023/04/22 11:55:30;;;;;;;9.98;6.38;;;19.40;99.90;;;;;;4993175;28;20513;-79
2023/04/22 11:58:09;;;;;;;17.23;6.65;;;19.30;99.90;;;;;;4975504;28;20130;-79
2023/04/22 12:00:48;;;;;;;8.25;6.60;;;19.20;99.90;;;;;;4992918;28;20414;-79
2023/04/22 12:03:19;;;;;;;9.38;6.90;;;19.20;99.90;;;;;;4975676;28;20077;-78
2023/04/22 12:05:59;;;;;;;10.90;7.75;;;19.30;99.90;;;;;;4993487;28;20042;-79
2023/04/22 12:08:30;;;;;;;11.18;6.90;;;19.30;99.90;;;;;;4976740;28;20340;-78
2023/04/22 12:10:58;;;;;;;11.18;7.85;;;19.40;99.90;;;;;;4975740;28;20224;-78
2023/04/22 12:13:25;;;;;;;11.00;7.60;;;19.50;99.90;;;;;;4994688;28;20057;-78
2023/04/22 12:16:22;;;;;;;10.25;7.78;;;19.80;99.90;;;;;;4979632;28;20390;-79
2023/04/22 12:18:53;;;;;;;9.25;7.22;;;20.10;99.90;;;;;;4976992;28;20528;-79
2023/04/22 12:21:23;;;;;;;10.90;8.27;;;20.60;99.90;;;;;;4979078;28;20050;-78
2023/04/22 12:24:03;;;;;;;11.00;8.80;;;20.70;99.90;;;;;;4996978;28;20030;-79
2023/04/22 12:26:29;;;;;;;14.73;8.93;;;20.60;99.90;;;;;;4979367;28;20048;-77
2023/04/22 12:28:59;;;;;;;18.98;9.30;;;20.30;99.90;;;;;;4978973;28;20042;-79
2023/04/22 12:31:26;;;;;;;11.40;9.27;;;20.00;99.90;;;;;;4962706;28;20096;-79
2023/04/22 12:33:52;;;;;;;12.40;9.00;;;19.80;99.90;;;;;;4962594;28;20130;-77
2023/04/22 12:36:22;;;;;;;11.15;9.00;;;19.60;99.90;;;;;;4978750;28;20490;-78
2023/04/22 12:38:48;;;;;;;12.68;8.98;;;19.30;99.90;;;;;;4978757;28;20054;-79
2023/04/22 12:41:14;;;;;;;10.80;8.93;;;19.30;99.90;;;;;;4978590;28;20046;-79
2023/04/22 12:43:40;;;;;;;10.90;8.93;;;19.40;99.90;;;;;;4978748;28;20042;-79
2023/04/22 12:46:07;;;;;;;12.13;8.75;;;19.60;99.90;;;;;;4963001;28;20049;-78
2023/04/22 12:48:36;;;;;;;12.20;9.52;;;19.90;99.90;;;;;;4978973;28;20073;-78
2023/04/22 12:51:02;;;;;;;15.88;9.65;;;19.90;99.90;;;;;;4978881;28;20073;-79
2023/04/22 12:53:28;;;;;;;11.93;9.65;;;19.90;99.90;;;;;;4978622;28;20046;-76
2023/04/22 12:55:54;;;;;;;11.02;8.82;;;19.70;99.90;;;;;;4979596;28;20097;-78
2023/04/22 12:58:20;;;;;;;10.40;9.30;;;19.70;99.90;;;;;;4978387;28;20053;-80
2023/04/22 13:00:46;;;;;;;12.38;8.88;;;19.60;99.90;;;;;;4978280;28;20047;-79
2023/04/22 13:03:11;;;;;;;12.02;9.30;;;19.60;99.90;;;;;;4996154;28;20047;-78
2023/04/22 13:05:38;;;;;;;11.70;9.10;;;19.60;99.90;;;;;;4978353;28;20136;-80
2023/04/22 13:08:04;;;;;;;10.48;8.60;;;19.60;99.90;;;;;;4993716;28;20026;-77
2023/04/22 13:10:30;;;;;;;12.02;9.40;;;19.50;99.90;;;;;;4977665;28;20372;-79
2023/04/22 13:12:56;;;;;;;12.07;9.52;;;19.40;99.90;;;;;;4978086;28;20042;-78
2023/04/22 13:15:25;;;;;;;12.02;9.48;;;19.30;99.90;;;;;;4972076;28;20042;-78
2023/04/22 13:17:51;;;;;;;13.98;8.75;;;19.20;99.90;;;;;;4968094;28;20038;-79
2023/04/22 13:20:17;;;;;;;10.77;8.07;;;19.10;99.90;;;;;;4985692;28;20039;-78
2023/04/22 13:22:43;;;;;;;11.00;8.18;;;18.90;99.90;;;;;;4969384;28;20556;-78
2023/04/22 13:25:09;;;;;;;13.05;7.25;;;18.90;99.90;;;;;;4987258;28;20088;-79
2023/04/22 13:27:36;;;;;;;11.07;6.97;;;18.70;99.90;;;;;;5004842;28;20027;-79
2023/04/22 13:30:03;;;;;;;12.57;7.28;;;18.70;99.90;;;;;;5004255;28;20041;-78
2023/04/22 13:32:28;;;;;;;10.57;7.22;;;18.60;99.90;;;;;;4983913;28;20050;-78
2023/04/22 13:34:54;;;;;;;11.25;8.77;;;18.40;99.90;;;;;;4986218;28;20046;-77
2023/04/22 13:37:20;;;;;;;11.55;7.78;;;18.30;99.90;;;;;;4997771;28;20061;-78
2023/04/22 13:39:46;;;;;;;12.60;9.18;;;18.00;99.90;;;;;;5015214;28;20037;-78
2023/04/22 13:42:12;;;;;;;14.40;11.70;;;17.50;99.90;;;;;;5011820;28;20477;-79
2023/04/22 13:44:38;;;;;;;16.45;12.95;;;17.20;99.90;;;;;;4997287;28;20041;-79
2023/04/22 13:47:04;;;;;;;16.42;11.55;;;17.00;99.90;;;;;;4998016;28;20441;-77
2023/04/22 13:49:29;;;;;;;16.95;13.20;;;16.80;99.90;;;;;;5014541;28;20053;-77
2023/04/22 13:51:55;;;;;;;15.02;11.60;;;16.60;99.90;;;;;;4997092;28;20124;-77
2023/04/22 13:54:21;;;;;;;16.35;12.48;;;16.30;99.90;;;;;;4997370;28;20521;-75
2023/04/22 13:56:47;;;;;;;20.30;14.20;;;16.10;99.90;;;;;;4996914;28;20480;-78
2023/04/22 13:59:14;;;;;;;19.60;14.55;;;16.10;99.90;;;;;;5011054;28;20046;-79
2023/04/22 14:01:40;;;;;;;16.77;13.43;;;16.00;99.90;;;;;;4977381;28;20478;-78
2023/04/22 14:04:05;;;;;;;18.05;13.82;;;16.00;99.90;;;;;;4977575;28;20121;-79
2023/04/22 14:06:31;;;;;;;20.75;14.70;;;15.90;99.90;;;;;;4977551;28;20042;-79
2023/04/22 14:08:57;;;;;;;20.88;14.82;;;15.90;99.90;;;;;;4961381;28;20042;-78
2023/04/22 14:11:23;;;;;;;19.15;15.02;;;15.90;99.90;;;;;;4977643;28;20403;-75
2023/04/22 14:13:49;;;;;;;19.35;16.02;;;15.80;99.90;;;;;;4994618;28;20031;-78
2023/04/22 14:16:16;;;;;;;21.70;15.63;;;15.70;99.90;;;;;;4977451;28;20474;-79
2023/04/22 14:18:44;;;;;;;19.35;15.65;;;15.70;99.90;;;;;;4977092;28;20145;-77
2023/04/22 14:21:11;;;;;;;24.92;17.52;;;15.60;99.90;;;;;;4976816;28;20486;-77
2023/04/22 14:23:38;;;;;;;24.90;17.63;;;15.60;99.90;;;;;;4977163;28;20134;-76
2023/04/22 14:26:06;;;;;;;23.67;18.25;;;15.60;99.90;;;;;;4977196;28;20050;-77
2023/04/22 14:28:32;;;;;;;23.25;18.23;;;15.60;99.90;;;;;;4995269;28;20565;-77
2023/04/22 14:30:57;;;;;;;26.65;19.25;;;15.50;99.90;;;;;;4997377;28;20089;-74
2023/04/22 14:33:24;;;;;;;27.45;20.10;;;15.50;99.90;;;;;;4986703;28;20038;-73
2023/04/22 14:35:51;;;;;;;29.02;21.20;;;15.50;99.90;;;;;;4985462;28;20043;-77
2023/04/22 14:38:17;;;;;;;28.60;21.42;;;15.50;99.90;;;;;;4977026;28;20078;-79
2023/04/22 14:40:43;;;;;;;38.10;27.85;;;15.40;99.90;;;;;;4977110;28;20045;-79
2023/04/22 14:43:08;;;;;;;40.22;27.00;;;15.40;99.90;;;;;;4976689;28;20038;-76
2023/04/22 14:45:34;;;;;;;46.45;29.63;;;15.30;99.90;;;;;;4976705;28;20123;-79
2023/04/22 14:48:00;;;;;;;52.35;33.38;;;15.10;99.90;;;;;;4976558;28;20042;-77
2023/04/22 14:50:26;;;;;;;52.78;32.67;;;15.00;99.90;;;;;;4976349;28;20049;-77
2023/04/22 14:52:52;;;;;;;48.35;27.52;;;14.90;99.90;;;;;;4994139;28;20046;-80
2023/04/22 14:55:18;;;;;;;49.10;30.08;;;14.80;99.90;;;;;;4974008;28;20038;-80
2023/04/22 14:57:44;;;;;;;48.75;29.83;;;14.60;99.90;;;;;;4972214;28;20050;-80
2023/04/22 15:00:10;;;;;;;43.05;26.50;;;14.50;99.90;;;;;;4975742;28;20042;-79
2023/04/22 15:02:36;;;;;;;42.75;27.27;;;14.20;99.90;;;;;;4973069;28;20513;-80
2023/04/22 15:05:02;;;;;;;42.35;26.50;;;14.00;99.90;;;;;;4954743;28;20042;-80
2023/04/22 15:07:28;;;;;;;36.38;22.88;;;13.50;99.90;;;;;;4972950;28;20042;-80
2023/04/22 15:09:57;;;;;;;43.88;23.88;;;13.20;99.90;;;;;;4976323;28;20117;-81
2023/04/22 15:12:23;;;;;;;38.58;25.10;;;12.90;99.90;;;;;;4976116;28;20053;-82
2023/04/22 15:14:49;;;;;;;47.53;25.85;;;12.70;99.90;;;;;;4960745;28;20092;-80
2023/04/22 15:17:14;;;;;;;42.40;24.48;;;12.50;99.90;;;;;;4976080;28;20057;-79
2023/04/22 15:19:40;;;;;;;45.35;26.65;;;12.40;99.90;;;;;;4977274;28;20042;-81
2023/04/22 15:22:06;;;;;;;45.80;27.52;;;12.30;99.90;;;;;;4975825;28;20035;-80
2023/04/22 15:24:31;;;;;;;46.90;28.17;;;12.40;99.90;;;;;;4992141;28;20050;-80
2023/04/22 15:26:59;;;;;;;49.13;28.42;;;12.40;99.90;;;;;;4992322;28;20042;-81
2023/04/22 15:29:27;;;;;;;52.13;29.25;;;12.40;99.90;;;;;;4993476;28;20116;-80
2023/04/22 15:31:53;;;;;;;48.25;28.92;;;12.30;99.90;;;;;;4992664;28;20042;-81
2023/04/22 15:34:18;;;;;;;48.72;28.63;;;12.30;99.90;;;;;;4992133;28;20056;-81
2023/04/22 15:36:44;;;;;;;50.30;29.50;;;12.30;99.90;;;;;;4992194;28;20046;-82
2023/04/22 15:39:11;;;;;;;46.03;27.40;;;12.30;99.90;;;;;;4992818;28;20053;-80
2023/04/22 15:41:36;;;;;;;49.13;29.20;;;12.30;99.90;;;;;;4948911;28;20042;-81
2023/04/22 15:44:03;;;;;;;44.35;28.30;;;12.40;99.90;;;;;;4976148;28;20046;-80
2023/04/22 15:46:31;;;;;;;41.53;24.83;;;12.40;99.90;;;;;;4976347;28;20111;-80
2023/04/22 15:48:59;;;;;;;39.08;26.10;;;12.30;99.90;;;;;;4979540;28;20049;-81
2023/04/22 15:51:25;;;;;;;46.30;27.60;;;12.30;99.90;;;;;;4980248;28;20386;-79
2023/04/22 15:53:58;;;;;;;39.95;27.00;;;12.40;99.90;;;;;;4979837;28;20112;-80
2023/04/22 15:56:24;;;;;;;40.97;27.23;;;12.30;99.90;;;;;;4979738;28;20494;-80
2023/04/22 15:58:51;;;;;;;41.90;26.63;;;12.30;99.90;;;;;;4963032;28;20078;-79
2023/04/22 16:01:19;;;;;;;47.83;28.67;;;12.40;99.90;;;;;;4965986;28;20043;-80
2023/04/22 16:03:45;;;;;;;39.95;26.52;;;12.50;99.90;;;;;;4960406;28;20433;-78
2023/04/22 16:06:10;;;;;;;43.38;27.63;;;12.50;99.90;;;;;;4960503;28;20042;-80
2023/04/22 16:08:37;;;;;;;44.60;28.15;;;12.50;99.90;;;;;;4960309;28;20129;-80
2023/04/22 16:11:03;;;;;;;49.28;30.20;;;12.60;99.90;;;;;;4973103;28;20046;-81
2023/04/22 16:13:29;;;;;;;45.78;29.60;;;12.70;99.90;;;;;;4979689;28;20042;-80
2023/04/22 16:15:56;;;;;;;40.90;28.15;;;12.80;99.90;;;;;;4996063;28;20073;-81
2023/04/22 16:18:22;;;;;;;41.70;27.67;;;12.80;99.90;;;;;;4995681;28;20042;-81
2023/04/22 16:20:48;;;;;;;45.30;29.40;;;12.80;99.90;;;;;;4995629;28;20042;-82
2023/04/22 16:23:14;;;;;;;50.10;31.98;;;12.80;99.90;;;;;;4995706;28;20093;-82
2023/04/22 16:25:40;;;;;;;42.65;28.67;;;12.90;99.90;;;;;;4997265;28;20042;-82
2023/04/22 16:28:05;;;;;;;41.72;27.20;;;12.80;99.90;;;;;;4995561;28;20042;-82
2023/04/22 16:30:31;;;;;;;38.92;26.25;;;12.90;99.90;;;;;;4995521;28;20394;-81
2023/04/22 16:32:57;;;;;;;39.30;25.50;;;12.90;99.90;;;;;;4996803;28;20125;-82
2023/04/22 16:35:23;;;;;;;35.53;24.88;;;12.90;99.90;;;;;;4996824;28;20053;-82
2023/04/22 16:37:48;;;;;;;30.10;22.80;;;12.80;99.90;;;;;;4995451;28;20042;-82
2023/04/22 16:40:14;;;;;;;35.08;24.42;;;12.80;99.90;;;;;;4995588;28;20042;-81
2023/04/22 16:42:40;;;;;;;37.75;26.05;;;12.70;99.90;;;;;;4995235;28;20049;-82
2023/04/22 16:45:06;;;;;;;40.92;28.40;;;12.70;99.90;;;;;;4995602;28;20046;-81
2023/04/22 16:47:32;;;;;;;44.53;28.83;;;12.70;99.90;;;;;;4995149;28;20089;-82
2023/04/22 16:49:58;;;;;;;45.50;29.55;;;12.80;99.90;;;;;;4995287;28;20137;-81
2023/04/22 16:52:23;;;;;;;36.75;26.15;;;12.80;99.90;;;;;;4996444;28;20361;-80
2023/04/22 16:54:50;;;;;;;38.45;27.13;;;12.70;99.90;;;;;;4994906;28;20125;-80
2023/04/22 16:57:16;;;;;;;37.95;24.83;;;12.80;99.90;;;;;;4995008;28;20046;-80
2023/04/22 16:59:41;;;;;;;38.33;26.58;;;12.70;99.90;;;;;;4994522;28;20049;-81
2023/04/22 17:02:07;;;;;;;36.78;26.30;;;12.80;99.90;;;;;;4995301;28;20042;-81
2023/04/22 17:04:33;;;;;;;39.22;25.60;;;12.70;99.90;;;;;;4995289;28;20043;-80
2023/04/22 17:06:59;;;;;;;47.20;29.50;;;12.60;99.90;;;;;;4995994;28;20506;-80
2023/04/22 17:09:24;;;;;;;42.38;28.58;;;12.50;99.90;;;;;;4994730;28;20402;-79
2023/04/22 17:11:50;;;;;;;46.20;27.38;;;12.40;99.90;;;;;;4995574;28;20046;-81
2023/04/22 17:14:16;;;;;;;39.80;23.92;;;12.30;99.90;;;;;;4978702;28;20050;-80
2023/04/22 17:16:41;;;;;;;28.50;18.60;;;12.20;99.90;;;;;;4994655;28;20038;-81
2023/04/22 17:19:07;;;;;;;25.33;15.68;;;11.90;99.90;;;;;;4994619;28;20042;-81
2023/04/22 17:21:36;;;;;;;23.98;15.55;;;11.70;99.90;;;;;;4994432;28;20053;-81
2023/04/22 17:24:03;;;;;;;29.52;17.67;;;11.50;99.90;;;;;;4994717;28;20076;-81
2023/04/22 17:26:29;;;;;;;26.02;16.63;;;11.40;99.90;;;;;;4995086;28;20050;-82
2023/04/22 17:28:54;;;;;;;32.00;18.73;;;11.20;99.90;;;;;;4994944;28;20045;-81
2023/04/22 17:31:22;;;;;;;34.22;20.70;;;11.10;99.90;;;;;;4995109;28;20053;-78
2023/04/22 17:33:47;;;;;;;38.30;24.25;;;11.00;99.90;;;;;;4994492;28;20053;-80
2023/04/22 17:36:13;;;;;;;43.95;26.15;;;10.90;99.90;;;;;;4994272;28;20374;-81
2023/04/22 17:38:39;;;;;;;49.75;28.58;;;10.80;99.90;;;;;;4994473;28;20049;-79
2023/04/22 17:41:06;;;;;;;50.75;30.25;;;10.80;99.90;;;;;;4995730;28;20113;-79
2023/04/22 17:43:31;;;;;;;49.40;27.95;;;10.70;99.90;;;;;;4994326;28;20042;-80
2023/04/22 17:45:57;;;;;;;39.50;22.55;;;10.60;99.90;;;;;;4995417;28;20118;-80